SCF5429 ZPPP-ZSPD
Flight info
| Callsign | SCF5429 |
|---|---|
| Flight time | 2h 25m |
| Altitude | 33100 |
| Route | NODIB9Y NODIB W137 LPS A581 WHA R343 EKIMU |
| Aircraft | A320/M-SDE3FGHIRWY/LB1 |
Departure
| Time | 2026-05-07 11:34 |
|---|---|
| Airport | Kunming Changshui International Airport (ZPPP) |
Arrival
| Time | 2026-05-07 13:59 |
|---|---|
| Airport | Shanghai Pudong International Airport (ZSPD) |
| Time | Latitude | Longitude | Altitude | Speed | Heading |
|---|---|---|---|---|---|
| 2026-05-07 11:27 | 25.09762 | 102.93394 | 6924 ft | 0 kts | 218° |
| 2026-05-07 11:31 | 25.09752 | 102.93386 | 6929 ft | 7 kts | 218° |
| 2026-05-07 11:31 | 25.09678 | 102.93321 | 6925 ft | 20 kts | 218° |
| 2026-05-07 11:31 | 25.09550 | 102.93211 | 6926 ft | 24 kts | 218° |
| 2026-05-07 11:31 | 25.09416 | 102.93094 | 6921 ft | 24 kts | 219° |
| 2026-05-07 11:32 | 25.09221 | 102.93093 | 6929 ft | 17 kts | 129° |
| 2026-05-07 11:32 | 25.09152 | 102.93187 | 6928 ft | 13 kts | 126° |
| 2026-05-07 11:32 | 25.09189 | 102.93260 | 6925 ft | 13 kts | 36° |
| 2026-05-07 11:33 | 25.09281 | 102.93340 | 6921 ft | 29 kts | 38° |
| 2026-05-07 11:33 | 25.09628 | 102.93642 | 6926 ft | 96 kts | 38° |
| 2026-05-07 11:33 | 25.10303 | 102.94231 | 6921 ft | 149 kts | 38° |
| 2026-05-07 11:33 | 25.11242 | 102.95034 | 7005 ft | 186 kts | 37° |
| 2026-05-07 11:34 | 25.12291 | 102.95928 | 7592 ft | 195 kts | 38° |
| 2026-05-07 11:34 | 25.13360 | 102.96858 | 8248 ft | 201 kts | 40° |
| 2026-05-07 11:34 | 25.14483 | 102.97824 | 8736 ft | 212 kts | 41° |
| 2026-05-07 11:34 | 25.15699 | 102.98881 | 8885 ft | 234 kts | 41° |
| 2026-05-07 11:35 | 25.17050 | 103.00057 | 9165 ft | 259 kts | 41° |
| 2026-05-07 11:35 | 25.18530 | 103.01344 | 9534 ft | 281 kts | 40° |
| 2026-05-07 11:35 | 25.20025 | 103.02765 | 10236 ft | 285 kts | 51° |
| 2026-05-07 11:35 | 25.21280 | 103.04521 | 10632 ft | 301 kts | 58° |
| 2026-05-07 11:36 | 25.22449 | 103.06582 | 10850 ft | 324 kts | 62° |
| 2026-05-07 11:36 | 25.23584 | 103.08756 | 11247 ft | 337 kts | 62° |
| 2026-05-07 11:36 | 25.24773 | 103.11038 | 11780 ft | 347 kts | 61° |
| 2026-05-07 11:36 | 25.26024 | 103.13364 | 12249 ft | 356 kts | 59° |
| 2026-05-07 11:37 | 25.27329 | 103.15711 | 12869 ft | 362 kts | 57° |
| 2026-05-07 11:37 | 25.28684 | 103.18083 | 13469 ft | 368 kts | 57° |
| 2026-05-07 11:37 | 25.30078 | 103.20487 | 14023 ft | 375 kts | 56° |
| 2026-05-07 11:37 | 25.31505 | 103.22930 | 14501 ft | 381 kts | 56° |
| 2026-05-07 11:38 | 25.32951 | 103.25404 | 15047 ft | 385 kts | 56° |
| 2026-05-07 11:38 | 25.34411 | 103.27910 | 15604 ft | 389 kts | 56° |
| 2026-05-07 11:38 | 25.35880 | 103.30440 | 16166 ft | 393 kts | 56° |
| 2026-05-07 11:38 | 25.37361 | 103.33001 | 16729 ft | 397 kts | 56° |
| 2026-05-07 11:39 | 25.38849 | 103.35586 | 17262 ft | 401 kts | 56° |
| 2026-05-07 11:39 | 25.40351 | 103.38202 | 17806 ft | 405 kts | 56° |
| 2026-05-07 11:39 | 25.41871 | 103.40847 | 18313 ft | 409 kts | 56° |
| 2026-05-07 11:39 | 25.43404 | 103.43510 | 18782 ft | 413 kts | 56° |
| 2026-05-07 11:40 | 25.44956 | 103.46198 | 19228 ft | 416 kts | 56° |
| 2026-05-07 11:40 | 25.46525 | 103.48913 | 19665 ft | 420 kts | 56° |
| 2026-05-07 11:40 | 25.48108 | 103.51657 | 20074 ft | 425 kts | 55° |
| 2026-05-07 11:40 | 25.49700 | 103.54424 | 20505 ft | 428 kts | 56° |
| 2026-05-07 11:41 | 25.51301 | 103.57219 | 20945 ft | 432 kts | 56° |
| 2026-05-07 11:41 | 25.52914 | 103.60039 | 21365 ft | 435 kts | 56° |
| 2026-05-07 11:41 | 25.54541 | 103.62878 | 21769 ft | 438 kts | 55° |
| 2026-05-07 11:41 | 25.56191 | 103.65731 | 22155 ft | 441 kts | 55° |
| 2026-05-07 11:42 | 25.57862 | 103.68600 | 22550 ft | 445 kts | 55° |
| 2026-05-07 11:42 | 25.59547 | 103.71487 | 22947 ft | 447 kts | 55° |
| 2026-05-07 11:42 | 25.61242 | 103.74388 | 23332 ft | 451 kts | 55° |
| 2026-05-07 11:42 | 25.62956 | 103.77327 | 23661 ft | 456 kts | 55° |
| 2026-05-07 11:43 | 25.64676 | 103.80290 | 23972 ft | 459 kts | 55° |
| 2026-05-07 11:43 | 25.66405 | 103.83273 | 24300 ft | 461 kts | 55° |
| 2026-05-07 11:43 | 25.68143 | 103.86272 | 24632 ft | 463 kts | 56° |
| 2026-05-07 11:43 | 25.69881 | 103.89274 | 25031 ft | 463 kts | 56° |
| 2026-05-07 11:44 | 25.71624 | 103.92282 | 25390 ft | 465 kts | 56° |
| 2026-05-07 11:44 | 25.73376 | 103.95304 | 25716 ft | 466 kts | 56° |
| 2026-05-07 11:44 | 25.75134 | 103.98340 | 26043 ft | 469 kts | 56° |
| 2026-05-07 11:44 | 25.76894 | 104.01388 | 26369 ft | 471 kts | 56° |
| 2026-05-07 11:45 | 25.78663 | 104.04455 | 26694 ft | 473 kts | 56° |
| 2026-05-07 11:45 | 25.80437 | 104.07529 | 27001 ft | 474 kts | 56° |
| 2026-05-07 11:45 | 25.82233 | 104.10615 | 27312 ft | 476 kts | 55° |
| 2026-05-07 11:45 | 25.84048 | 104.13698 | 27614 ft | 478 kts | 55° |
| 2026-05-07 11:46 | 25.85879 | 104.16791 | 27917 ft | 480 kts | 55° |
| 2026-05-07 11:46 | 25.87717 | 104.19901 | 28222 ft | 482 kts | 55° |
| 2026-05-07 11:46 | 25.89554 | 104.23026 | 28504 ft | 485 kts | 55° |
| 2026-05-07 11:46 | 25.91398 | 104.26167 | 28809 ft | 487 kts | 55° |
| 2026-05-07 11:47 | 25.93248 | 104.29324 | 29115 ft | 489 kts | 55° |
| 2026-05-07 11:47 | 25.95106 | 104.32500 | 29406 ft | 491 kts | 55° |
| 2026-05-07 11:47 | 25.96970 | 104.35685 | 29696 ft | 493 kts | 55° |
| 2026-05-07 11:47 | 25.98841 | 104.38887 | 29968 ft | 495 kts | 55° |
| 2026-05-07 11:48 | 26.00720 | 104.42102 | 30219 ft | 497 kts | 54° |
| 2026-05-07 11:48 | 26.02795 | 104.45168 | 30450 ft | 496 kts | 46° |
| 2026-05-07 11:48 | 26.05237 | 104.47858 | 30672 ft | 494 kts | 36° |
| 2026-05-07 11:48 | 26.07849 | 104.50266 | 30867 ft | 495 kts | 36° |
| 2026-05-07 11:49 | 26.10538 | 104.52745 | 31118 ft | 496 kts | 36° |
| 2026-05-07 11:49 | 26.13156 | 104.55171 | 31384 ft | 497 kts | 37° |
| 2026-05-07 11:49 | 26.15812 | 104.57646 | 31653 ft | 497 kts | 37° |
| 2026-05-07 11:49 | 26.18458 | 104.60116 | 31993 ft | 496 kts | 37° |
| 2026-05-07 11:50 | 26.21097 | 104.62578 | 32351 ft | 494 kts | 36° |
| 2026-05-07 11:50 | 26.23729 | 104.65031 | 32630 ft | 493 kts | 36° |
| 2026-05-07 11:50 | 26.26360 | 104.67480 | 32939 ft | 492 kts | 36° |
| 2026-05-07 11:50 | 26.28987 | 104.69925 | 33173 ft | 492 kts | 36° |
| 2026-05-07 11:51 | 26.31589 | 104.72347 | 33224 ft | 482 kts | 36° |
| 2026-05-07 11:51 | 26.36671 | 104.77094 | 33242 ft | 473 kts | 36° |
| 2026-05-07 11:52 | 26.41710 | 104.81802 | 33231 ft | 474 kts | 36° |
| 2026-05-07 11:52 | 26.46778 | 104.86532 | 33250 ft | 475 kts | 36° |
| 2026-05-07 11:53 | 26.51848 | 104.91273 | 33248 ft | 475 kts | 36° |
| 2026-05-07 11:53 | 26.56910 | 104.96026 | 33239 ft | 475 kts | 36° |
| 2026-05-07 11:54 | 26.61929 | 105.00841 | 33235 ft | 478 kts | 41° |
| 2026-05-07 11:54 | 26.65868 | 105.06856 | 33221 ft | 485 kts | 61° |
| 2026-05-07 11:55 | 26.68656 | 105.13749 | 33215 ft | 488 kts | 63° |
| 2026-05-07 11:55 | 26.71449 | 105.20676 | 33209 ft | 489 kts | 64° |
| 2026-05-07 11:56 | 26.74243 | 105.27620 | 33207 ft | 490 kts | 63° |
| 2026-05-07 11:56 | 26.77026 | 105.34587 | 33221 ft | 491 kts | 63° |
| 2026-05-07 11:57 | 26.79818 | 105.41568 | 33217 ft | 491 kts | 63° |
| 2026-05-07 11:57 | 26.82609 | 105.48555 | 33224 ft | 492 kts | 63° |
| 2026-05-07 11:58 | 26.85379 | 105.55502 | 33230 ft | 492 kts | 63° |
| 2026-05-07 11:58 | 26.88163 | 105.62501 | 33229 ft | 492 kts | 63° |
| 2026-05-07 11:59 | 26.90953 | 105.69511 | 33247 ft | 493 kts | 63° |
| 2026-05-07 11:59 | 26.93753 | 105.76590 | 33237 ft | 494 kts | 63° |
| 2026-05-07 12:00 | 26.96514 | 105.83578 | 33235 ft | 494 kts | 63° |
| 2026-05-07 12:00 | 26.99295 | 105.90620 | 33233 ft | 494 kts | 63° |
| 2026-05-07 12:01 | 27.02082 | 105.97670 | 33231 ft | 495 kts | 63° |
| 2026-05-07 12:01 | 27.04882 | 106.04722 | 33241 ft | 494 kts | 62° |
| 2026-05-07 12:02 | 27.07949 | 106.11614 | 33243 ft | 493 kts | 59° |
| 2026-05-07 12:02 | 27.11177 | 106.18406 | 33245 ft | 493 kts | 58° |
| 2026-05-07 12:03 | 27.14368 | 106.25224 | 33255 ft | 494 kts | 59° |
| 2026-05-07 12:03 | 27.16965 | 106.30934 | 33236 ft | 494 kts | 59° |
| 2026-05-07 12:04 | 27.20585 | 106.38992 | 33227 ft | 494 kts | 59° |
| 2026-05-07 12:04 | 27.23175 | 106.44714 | 33220 ft | 495 kts | 59° |
| 2026-05-07 12:05 | 27.26838 | 106.52767 | 33226 ft | 496 kts | 59° |
| 2026-05-07 12:05 | 27.29445 | 106.58502 | 33229 ft | 496 kts | 59° |
| 2026-05-07 12:06 | 27.33080 | 106.66531 | 33222 ft | 496 kts | 59° |
| 2026-05-07 12:06 | 27.35693 | 106.72330 | 33223 ft | 496 kts | 59° |
| 2026-05-07 12:07 | 27.38803 | 106.79251 | 33220 ft | 496 kts | 59° |
| 2026-05-07 12:07 | 27.41908 | 106.86177 | 33219 ft | 495 kts | 59° |
| 2026-05-07 12:08 | 27.44998 | 106.93101 | 33215 ft | 495 kts | 59° |
| 2026-05-07 12:08 | 27.48084 | 107.00036 | 33229 ft | 495 kts | 59° |
| 2026-05-07 12:09 | 27.51203 | 107.06945 | 33208 ft | 495 kts | 59° |
| 2026-05-07 12:09 | 27.54337 | 107.13844 | 33218 ft | 494 kts | 59° |
| 2026-05-07 12:10 | 27.57458 | 107.20740 | 33243 ft | 494 kts | 59° |
| 2026-05-07 12:10 | 27.60573 | 107.27647 | 33210 ft | 495 kts | 59° |
| 2026-05-07 12:11 | 27.63696 | 107.34568 | 33206 ft | 495 kts | 59° |
| 2026-05-07 12:11 | 27.66790 | 107.41457 | 33213 ft | 496 kts | 59° |
| 2026-05-07 12:12 | 27.69903 | 107.48403 | 33207 ft | 496 kts | 59° |
| 2026-05-07 12:12 | 27.73017 | 107.55350 | 33212 ft | 496 kts | 59° |
| 2026-05-07 12:13 | 27.76126 | 107.62301 | 33223 ft | 496 kts | 59° |
| 2026-05-07 12:13 | 27.79231 | 107.69256 | 33218 ft | 496 kts | 59° |
| 2026-05-07 12:14 | 27.82334 | 107.76228 | 33209 ft | 497 kts | 59° |
| 2026-05-07 12:14 | 27.85466 | 107.83192 | 33222 ft | 496 kts | 58° |
| 2026-05-07 12:15 | 27.88645 | 107.90113 | 33229 ft | 496 kts | 58° |
| 2026-05-07 12:15 | 27.91828 | 107.97034 | 33228 ft | 496 kts | 58° |
| 2026-05-07 12:16 | 27.94988 | 108.03964 | 33231 ft | 496 kts | 58° |
| 2026-05-07 12:16 | 27.98135 | 108.10915 | 33232 ft | 496 kts | 58° |
| 2026-05-07 12:17 | 28.01285 | 108.17863 | 33235 ft | 496 kts | 58° |
| 2026-05-07 12:17 | 28.04435 | 108.24822 | 33237 ft | 497 kts | 58° |
| 2026-05-07 12:18 | 28.07591 | 108.31796 | 33237 ft | 498 kts | 58° |
| 2026-05-07 12:18 | 28.10753 | 108.38783 | 33239 ft | 499 kts | 58° |
| 2026-05-07 12:19 | 28.13909 | 108.45773 | 33246 ft | 498 kts | 58° |
| 2026-05-07 12:19 | 28.17054 | 108.52767 | 33251 ft | 498 kts | 58° |
| 2026-05-07 12:20 | 28.20197 | 108.59761 | 33259 ft | 498 kts | 58° |
| 2026-05-07 12:20 | 28.23332 | 108.66752 | 33285 ft | 497 kts | 58° |
| 2026-05-07 12:21 | 28.26455 | 108.73751 | 33264 ft | 498 kts | 58° |
| 2026-05-07 12:21 | 28.29568 | 108.80707 | 33259 ft | 498 kts | 58° |
| 2026-05-07 12:22 | 28.32700 | 108.87710 | 33264 ft | 497 kts | 59° |
| 2026-05-07 12:22 | 28.35814 | 108.94709 | 33262 ft | 497 kts | 58° |
| 2026-05-07 12:23 | 28.38922 | 109.01710 | 33255 ft | 496 kts | 58° |
| 2026-05-07 12:23 | 28.42026 | 109.08710 | 33249 ft | 496 kts | 59° |
| 2026-05-07 12:24 | 28.45126 | 109.15715 | 33270 ft | 496 kts | 59° |
| 2026-05-07 12:24 | 28.48222 | 109.22735 | 33269 ft | 497 kts | 59° |
| 2026-05-07 12:25 | 28.51320 | 109.29760 | 33263 ft | 497 kts | 58° |
| 2026-05-07 12:25 | 28.54421 | 109.36791 | 33258 ft | 497 kts | 59° |
| 2026-05-07 12:26 | 28.57505 | 109.43836 | 33258 ft | 498 kts | 59° |
| 2026-05-07 12:26 | 28.60121 | 109.51164 | 33266 ft | 500 kts | 65° |
| 2026-05-07 12:27 | 28.62646 | 109.58540 | 33260 ft | 500 kts | 65° |
| 2026-05-07 12:27 | 28.65171 | 109.65912 | 33279 ft | 499 kts | 65° |
| 2026-05-07 12:28 | 28.67748 | 109.73253 | 33270 ft | 499 kts | 64° |
| 2026-05-07 12:28 | 28.70395 | 109.80546 | 33273 ft | 498 kts | 63° |
| 2026-05-07 12:29 | 28.73036 | 109.87829 | 33284 ft | 497 kts | 64° |
| 2026-05-07 12:29 | 28.75645 | 109.95128 | 33277 ft | 497 kts | 64° |
| 2026-05-07 12:30 | 28.78239 | 110.02430 | 33290 ft | 497 kts | 64° |
| 2026-05-07 12:30 | 28.80833 | 110.09733 | 33276 ft | 497 kts | 64° |
| 2026-05-07 12:31 | 28.83426 | 110.17030 | 33279 ft | 497 kts | 64° |
| 2026-05-07 12:31 | 28.86015 | 110.24333 | 33304 ft | 496 kts | 64° |
| 2026-05-07 12:32 | 28.88579 | 110.31578 | 33298 ft | 496 kts | 64° |
| 2026-05-07 12:32 | 28.91157 | 110.38873 | 33265 ft | 495 kts | 64° |
| 2026-05-07 12:33 | 28.95001 | 110.49821 | 33279 ft | 495 kts | 64° |
| 2026-05-07 12:33 | 28.97567 | 110.57117 | 33278 ft | 495 kts | 65° |
| 2026-05-07 12:34 | 29.00127 | 110.64412 | 33274 ft | 494 kts | 65° |
| 2026-05-07 12:34 | 29.02671 | 110.71713 | 33266 ft | 494 kts | 65° |
| 2026-05-07 12:35 | 29.05232 | 110.79001 | 33276 ft | 494 kts | 64° |
| 2026-05-07 12:35 | 29.07822 | 110.86276 | 33278 ft | 494 kts | 64° |
| 2026-05-07 12:36 | 29.10412 | 110.93550 | 33274 ft | 494 kts | 64° |
| 2026-05-07 12:36 | 29.12981 | 111.00823 | 33265 ft | 493 kts | 65° |
| 2026-05-07 12:37 | 29.15539 | 111.08096 | 33261 ft | 493 kts | 65° |
| 2026-05-07 12:37 | 29.18096 | 111.15376 | 33247 ft | 493 kts | 65° |
| 2026-05-07 12:38 | 29.20644 | 111.22646 | 33251 ft | 492 kts | 65° |
| 2026-05-07 12:38 | 29.23194 | 111.29916 | 33266 ft | 492 kts | 65° |
| 2026-05-07 12:39 | 29.25717 | 111.37139 | 33250 ft | 492 kts | 65° |
| 2026-05-07 12:39 | 29.28249 | 111.44414 | 33238 ft | 492 kts | 65° |
| 2026-05-07 12:40 | 29.30779 | 111.51688 | 33238 ft | 492 kts | 65° |
| 2026-05-07 12:40 | 29.33306 | 111.58964 | 33229 ft | 492 kts | 65° |
| 2026-05-07 12:41 | 29.36089 | 111.66091 | 33232 ft | 487 kts | 54° |
| 2026-05-07 12:41 | 29.39784 | 111.72565 | 33232 ft | 485 kts | 52° |
| 2026-05-07 12:42 | 29.43488 | 111.79034 | 33236 ft | 486 kts | 52° |
| 2026-05-07 12:42 | 29.47184 | 111.85529 | 33229 ft | 486 kts | 52° |
| 2026-05-07 12:43 | 29.50886 | 111.92020 | 33233 ft | 486 kts | 52° |
| 2026-05-07 12:43 | 29.54587 | 111.98516 | 33232 ft | 486 kts | 52° |
| 2026-05-07 12:44 | 29.58287 | 112.05019 | 33237 ft | 486 kts | 52° |
| 2026-05-07 12:44 | 29.61991 | 112.11523 | 33256 ft | 486 kts | 52° |
| 2026-05-07 12:45 | 29.65685 | 112.18035 | 33248 ft | 487 kts | 53° |
| 2026-05-07 12:45 | 29.69371 | 112.24564 | 33242 ft | 486 kts | 53° |
| 2026-05-07 12:46 | 29.73047 | 112.31088 | 33233 ft | 486 kts | 53° |
| 2026-05-07 12:46 | 29.76724 | 112.37612 | 33225 ft | 486 kts | 53° |
| 2026-05-07 12:47 | 29.80362 | 112.44106 | 33229 ft | 486 kts | 53° |
| 2026-05-07 12:47 | 29.84017 | 112.50657 | 33231 ft | 486 kts | 53° |
| 2026-05-07 12:48 | 29.87677 | 112.57211 | 33228 ft | 486 kts | 53° |
| 2026-05-07 12:48 | 29.91339 | 112.63767 | 33220 ft | 487 kts | 53° |
| 2026-05-07 12:49 | 29.94994 | 112.70333 | 33225 ft | 487 kts | 53° |
| 2026-05-07 12:49 | 29.98645 | 112.76914 | 33223 ft | 487 kts | 53° |
| 2026-05-07 12:50 | 30.02297 | 112.83497 | 33243 ft | 487 kts | 53° |
| 2026-05-07 12:50 | 30.05948 | 112.90088 | 33228 ft | 487 kts | 53° |
| 2026-05-07 12:51 | 30.09600 | 112.96683 | 33231 ft | 487 kts | 53° |
| 2026-05-07 12:51 | 30.13248 | 113.03286 | 33219 ft | 488 kts | 53° |
| 2026-05-07 12:52 | 30.16275 | 113.08775 | 33223 ft | 488 kts | 53° |
| 2026-05-07 12:52 | 30.20533 | 113.16515 | 33216 ft | 488 kts | 53° |
| 2026-05-07 12:53 | 30.23565 | 113.22014 | 33238 ft | 488 kts | 53° |
| 2026-05-07 12:53 | 30.27260 | 113.28595 | 33230 ft | 488 kts | 52° |
| 2026-05-07 12:54 | 30.30971 | 113.35164 | 33228 ft | 488 kts | 53° |
| 2026-05-07 12:54 | 30.34660 | 113.41750 | 33229 ft | 488 kts | 53° |
| 2026-05-07 12:55 | 30.38338 | 113.48357 | 33220 ft | 488 kts | 53° |
| 2026-05-07 12:55 | 30.42031 | 113.54970 | 33229 ft | 489 kts | 52° |
| 2026-05-07 12:56 | 30.45722 | 113.61584 | 33210 ft | 489 kts | 53° |
| 2026-05-07 12:56 | 30.49404 | 113.68219 | 33212 ft | 490 kts | 53° |
| 2026-05-07 12:57 | 30.53086 | 113.74871 | 33208 ft | 490 kts | 53° |
| 2026-05-07 12:57 | 30.56770 | 113.81523 | 33214 ft | 491 kts | 52° |
| 2026-05-07 12:58 | 30.60465 | 113.88188 | 33231 ft | 491 kts | 52° |
| 2026-05-07 12:58 | 30.64131 | 113.94831 | 33220 ft | 492 kts | 52° |
| 2026-05-07 12:59 | 30.67847 | 114.01567 | 33214 ft | 492 kts | 52° |
| 2026-05-07 12:59 | 30.71521 | 114.08224 | 33203 ft | 492 kts | 52° |
| 2026-05-07 13:00 | 30.75201 | 114.14927 | 33197 ft | 492 kts | 52° |
| 2026-05-07 13:00 | 30.78654 | 114.21808 | 33208 ft | 497 kts | 63° |
| 2026-05-07 13:01 | 30.81176 | 114.29315 | 33225 ft | 498 kts | 65° |
| 2026-05-07 13:01 | 30.83633 | 114.36854 | 33228 ft | 498 kts | 66° |
| 2026-05-07 13:02 | 30.86042 | 114.44408 | 33233 ft | 497 kts | 66° |
| 2026-05-07 13:02 | 30.88455 | 114.51942 | 33237 ft | 496 kts | 66° |
| 2026-05-07 13:03 | 30.90896 | 114.59440 | 33233 ft | 495 kts | 65° |
| 2026-05-07 13:03 | 30.93341 | 114.66932 | 33229 ft | 495 kts | 66° |
| 2026-05-07 13:04 | 30.95767 | 114.74435 | 33250 ft | 495 kts | 66° |
| 2026-05-07 13:04 | 30.98179 | 114.81939 | 33244 ft | 495 kts | 66° |
| 2026-05-07 13:05 | 31.00594 | 114.89448 | 33234 ft | 495 kts | 66° |
| 2026-05-07 13:05 | 31.03008 | 114.96955 | 33229 ft | 495 kts | 66° |
| 2026-05-07 13:06 | 31.05417 | 115.04474 | 33226 ft | 495 kts | 66° |
| 2026-05-07 13:06 | 31.07816 | 115.11983 | 33228 ft | 494 kts | 66° |
| 2026-05-07 13:07 | 31.10191 | 115.19450 | 33237 ft | 494 kts | 66° |
| 2026-05-07 13:07 | 31.12570 | 115.26970 | 33241 ft | 494 kts | 66° |
| 2026-05-07 13:08 | 31.14959 | 115.34478 | 33221 ft | 494 kts | 66° |
| 2026-05-07 13:08 | 31.17419 | 115.42031 | 33228 ft | 495 kts | 65° |
| 2026-05-07 13:09 | 31.19852 | 115.49499 | 33225 ft | 495 kts | 66° |
| 2026-05-07 13:09 | 31.22299 | 115.57084 | 33224 ft | 496 kts | 66° |
| 2026-05-07 13:10 | 31.24722 | 115.64628 | 33237 ft | 496 kts | 65° |
| 2026-05-07 13:10 | 31.27148 | 115.72174 | 33243 ft | 496 kts | 66° |
| 2026-05-07 13:11 | 31.29549 | 115.79690 | 33251 ft | 497 kts | 66° |
| 2026-05-07 13:11 | 31.31958 | 115.87265 | 33251 ft | 497 kts | 66° |
| 2026-05-07 13:12 | 31.34397 | 115.94837 | 33262 ft | 497 kts | 65° |
| 2026-05-07 13:12 | 31.36872 | 116.02384 | 33267 ft | 497 kts | 65° |
| 2026-05-07 13:13 | 31.39345 | 116.09933 | 33269 ft | 496 kts | 65° |
| 2026-05-07 13:13 | 31.41795 | 116.17485 | 33295 ft | 497 kts | 65° |
| 2026-05-07 13:14 | 31.44241 | 116.25056 | 33291 ft | 497 kts | 65° |
| 2026-05-07 13:14 | 31.46686 | 116.32624 | 33274 ft | 496 kts | 65° |
| 2026-05-07 13:15 | 31.49123 | 116.40185 | 33263 ft | 496 kts | 65° |
| 2026-05-07 13:15 | 31.51551 | 116.47754 | 33263 ft | 496 kts | 66° |
| 2026-05-07 13:16 | 31.53978 | 116.55322 | 33260 ft | 496 kts | 65° |
| 2026-05-07 13:16 | 31.56402 | 116.62887 | 33274 ft | 496 kts | 65° |
| 2026-05-07 13:17 | 31.58817 | 116.70465 | 33264 ft | 496 kts | 65° |
| 2026-05-07 13:17 | 31.61231 | 116.78048 | 33259 ft | 496 kts | 65° |
| 2026-05-07 13:18 | 31.63645 | 116.85639 | 33255 ft | 496 kts | 65° |
| 2026-05-07 13:18 | 31.66050 | 116.93227 | 33245 ft | 496 kts | 65° |
| 2026-05-07 13:19 | 31.68450 | 117.00827 | 33255 ft | 496 kts | 66° |
| 2026-05-07 13:19 | 31.70827 | 117.08431 | 33293 ft | 497 kts | 66° |
| 2026-05-07 13:20 | 31.73154 | 117.16011 | 33277 ft | 497 kts | 66° |
| 2026-05-07 13:20 | 31.75492 | 117.23643 | 33252 ft | 496 kts | 66° |
| 2026-05-07 13:21 | 31.77086 | 117.31558 | 33252 ft | 502 kts | 84° |
| 2026-05-07 13:21 | 31.76839 | 117.39768 | 33243 ft | 504 kts | 94° |
| 2026-05-07 13:22 | 31.76275 | 117.47970 | 33225 ft | 504 kts | 94° |
| 2026-05-07 13:22 | 31.75716 | 117.56177 | 33235 ft | 504 kts | 94° |
| 2026-05-07 13:23 | 31.75152 | 117.64379 | 33239 ft | 503 kts | 94° |
| 2026-05-07 13:23 | 31.74573 | 117.72574 | 33242 ft | 503 kts | 95° |
| 2026-05-07 13:24 | 31.73988 | 117.80765 | 33238 ft | 503 kts | 95° |
| 2026-05-07 13:24 | 31.73397 | 117.88961 | 33240 ft | 503 kts | 95° |
| 2026-05-07 13:25 | 31.72795 | 117.97161 | 33285 ft | 503 kts | 94° |
| 2026-05-07 13:25 | 31.72190 | 118.05320 | 33250 ft | 504 kts | 94° |
| 2026-05-07 13:26 | 31.71584 | 118.13520 | 33230 ft | 504 kts | 94° |
| 2026-05-07 13:26 | 31.71015 | 118.21715 | 33234 ft | 504 kts | 94° |
| 2026-05-07 13:27 | 31.70455 | 118.29925 | 33240 ft | 504 kts | 94° |
| 2026-05-07 13:27 | 31.69888 | 118.38126 | 33228 ft | 504 kts | 94° |
| 2026-05-07 13:28 | 31.69304 | 118.46320 | 33238 ft | 504 kts | 94° |
| 2026-05-07 13:28 | 31.68708 | 118.54512 | 33245 ft | 503 kts | 94° |
| 2026-05-07 13:29 | 31.68104 | 118.62695 | 33254 ft | 503 kts | 94° |
| 2026-05-07 13:29 | 31.67507 | 118.70879 | 33250 ft | 503 kts | 94° |
| 2026-05-07 13:30 | 31.66906 | 118.79061 | 33255 ft | 503 kts | 94° |
| 2026-05-07 13:30 | 31.66296 | 118.87242 | 33256 ft | 503 kts | 95° |
| 2026-05-07 13:31 | 31.65680 | 118.95420 | 33255 ft | 503 kts | 95° |
| 2026-05-07 13:31 | 31.65059 | 119.03592 | 33252 ft | 503 kts | 94° |
| 2026-05-07 13:32 | 31.64545 | 119.11780 | 33237 ft | 503 kts | 92° |
| 2026-05-07 13:32 | 31.64194 | 119.19966 | 33230 ft | 502 kts | 91° |
| 2026-05-07 13:33 | 31.63886 | 119.28105 | 33225 ft | 502 kts | 92° |
| 2026-05-07 13:33 | 31.63536 | 119.36293 | 33256 ft | 502 kts | 92° |
| 2026-05-07 13:34 | 31.62947 | 119.48557 | 33238 ft | 502 kts | 92° |
| 2026-05-07 13:35 | 31.62551 | 119.56728 | 33232 ft | 501 kts | 92° |
| 2026-05-07 13:35 | 31.62154 | 119.64886 | 33235 ft | 501 kts | 92° |
| 2026-05-07 13:36 | 31.61764 | 119.73039 | 33231 ft | 500 kts | 92° |
| 2026-05-07 13:36 | 31.61391 | 119.81185 | 33229 ft | 500 kts | 92° |
| 2026-05-07 13:37 | 31.61020 | 119.89322 | 33128 ft | 499 kts | 92° |
| 2026-05-07 13:37 | 31.60835 | 119.93371 | 32873 ft | 495 kts | 92° |
| 2026-05-07 13:37 | 31.60651 | 119.97390 | 32615 ft | 493 kts | 92° |
| 2026-05-07 13:37 | 31.60461 | 120.01396 | 32366 ft | 491 kts | 92° |
| 2026-05-07 13:38 | 31.60267 | 120.05391 | 32119 ft | 489 kts | 93° |
| 2026-05-07 13:38 | 31.60070 | 120.09354 | 31682 ft | 486 kts | 93° |
| 2026-05-07 13:38 | 31.59872 | 120.13319 | 31070 ft | 487 kts | 93° |
| 2026-05-07 13:38 | 31.59676 | 120.17280 | 30492 ft | 486 kts | 93° |
| 2026-05-07 13:39 | 31.59481 | 120.21236 | 29880 ft | 486 kts | 93° |
| 2026-05-07 13:39 | 31.59286 | 120.25184 | 29303 ft | 483 kts | 93° |
| 2026-05-07 13:39 | 31.59085 | 120.29098 | 28752 ft | 479 kts | 95° |
| 2026-05-07 13:39 | 31.58796 | 120.31652 | 28419 ft | 476 kts | 102° |
| 2026-05-07 13:40 | 31.57935 | 120.35361 | 27980 ft | 468 kts | 111° |
| 2026-05-07 13:40 | 31.56871 | 120.38940 | 27512 ft | 463 kts | 111° |
| 2026-05-07 13:40 | 31.55816 | 120.42487 | 27042 ft | 459 kts | 111° |
| 2026-05-07 13:40 | 31.54771 | 120.45996 | 26591 ft | 454 kts | 111° |
| 2026-05-07 13:41 | 31.53730 | 120.49479 | 26123 ft | 451 kts | 111° |
| 2026-05-07 13:41 | 31.52695 | 120.52937 | 25661 ft | 447 kts | 111° |
| 2026-05-07 13:41 | 31.51666 | 120.56367 | 25173 ft | 445 kts | 112° |
| 2026-05-07 13:41 | 31.50642 | 120.59781 | 24693 ft | 443 kts | 112° |
| 2026-05-07 13:42 | 31.49624 | 120.63179 | 24193 ft | 441 kts | 112° |
| 2026-05-07 13:42 | 31.48609 | 120.66570 | 23696 ft | 440 kts | 112° |
| 2026-05-07 13:42 | 31.47595 | 120.69946 | 23134 ft | 438 kts | 112° |
| 2026-05-07 13:42 | 31.46586 | 120.73299 | 22639 ft | 435 kts | 112° |
| 2026-05-07 13:43 | 31.45584 | 120.76626 | 22142 ft | 432 kts | 112° |
| 2026-05-07 13:43 | 31.44588 | 120.79931 | 21649 ft | 429 kts | 112° |
| 2026-05-07 13:43 | 31.43597 | 120.83218 | 21186 ft | 426 kts | 112° |
| 2026-05-07 13:43 | 31.42614 | 120.86475 | 20700 ft | 424 kts | 112° |
| 2026-05-07 13:44 | 31.41647 | 120.89666 | 20289 ft | 420 kts | 112° |
| 2026-05-07 13:44 | 31.40675 | 120.92873 | 19920 ft | 415 kts | 111° |
| 2026-05-07 13:44 | 31.39713 | 120.96054 | 19430 ft | 414 kts | 111° |
| 2026-05-07 13:44 | 31.38761 | 120.99199 | 19101 ft | 408 kts | 111° |
| 2026-05-07 13:45 | 31.37816 | 121.02312 | 18687 ft | 405 kts | 111° |
| 2026-05-07 13:45 | 31.36874 | 121.05409 | 18297 ft | 402 kts | 111° |
| 2026-05-07 13:45 | 31.35902 | 121.08451 | 17847 ft | 397 kts | 117° |
| 2026-05-07 13:45 | 31.34526 | 121.11203 | 17422 ft | 389 kts | 130° |
| 2026-05-07 13:46 | 31.32722 | 121.13498 | 16988 ft | 380 kts | 143° |
| 2026-05-07 13:46 | 31.30735 | 121.15515 | 16542 ft | 377 kts | 143° |
| 2026-05-07 13:46 | 31.28759 | 121.17517 | 16120 ft | 375 kts | 143° |
| 2026-05-07 13:46 | 31.26797 | 121.19506 | 15706 ft | 372 kts | 143° |
| 2026-05-07 13:47 | 31.24850 | 121.21479 | 15306 ft | 369 kts | 142° |
| 2026-05-07 13:47 | 31.22914 | 121.23446 | 14914 ft | 367 kts | 142° |
| 2026-05-07 13:47 | 31.21002 | 121.25394 | 14520 ft | 365 kts | 142° |
| 2026-05-07 13:47 | 31.19102 | 121.27321 | 14147 ft | 362 kts | 142° |
| 2026-05-07 13:48 | 31.17203 | 121.29240 | 13746 ft | 360 kts | 142° |
| 2026-05-07 13:48 | 31.15322 | 121.31151 | 13324 ft | 357 kts | 140° |
| 2026-05-07 13:48 | 31.13738 | 121.33380 | 12921 ft | 358 kts | 122° |
| 2026-05-07 13:48 | 31.12756 | 121.36031 | 12516 ft | 357 kts | 105° |
| 2026-05-07 13:49 | 31.12439 | 121.38883 | 12124 ft | 353 kts | 89° |
| 2026-05-07 13:49 | 31.12500 | 121.41739 | 11715 ft | 351 kts | 88° |
| 2026-05-07 13:49 | 31.12565 | 121.44568 | 11364 ft | 346 kts | 88° |
| 2026-05-07 13:49 | 31.12625 | 121.47332 | 11233 ft | 335 kts | 88° |
| 2026-05-07 13:50 | 31.12681 | 121.50005 | 11059 ft | 326 kts | 88° |
| 2026-05-07 13:50 | 31.12733 | 121.52633 | 10746 ft | 322 kts | 88° |
| 2026-05-07 13:50 | 31.12783 | 121.55238 | 10407 ft | 320 kts | 88° |
| 2026-05-07 13:50 | 31.12833 | 121.57813 | 10033 ft | 319 kts | 88° |
| 2026-05-07 13:51 | 31.12880 | 121.60422 | 9159 ft | 333 kts | 89° |
| 2026-05-07 13:51 | 31.12928 | 121.63178 | 8373 ft | 343 kts | 89° |
| 2026-05-07 13:51 | 31.12961 | 121.65916 | 8142 ft | 332 kts | 92° |
| 2026-05-07 13:51 | 31.12455 | 121.68473 | 7941 ft | 319 kts | 117° |
| 2026-05-07 13:52 | 31.11165 | 121.70482 | 7743 ft | 303 kts | 142° |
| 2026-05-07 13:52 | 31.09400 | 121.71581 | 7543 ft | 275 kts | 171° |
| 2026-05-07 13:52 | 31.07576 | 121.71795 | 7193 ft | 258 kts | 180° |
| 2026-05-07 13:52 | 31.05808 | 121.72106 | 6665 ft | 257 kts | 171° |
| 2026-05-07 13:53 | 31.04113 | 121.72773 | 6121 ft | 257 kts | 161° |
| 2026-05-07 13:53 | 31.02462 | 121.73541 | 5568 ft | 255 kts | 161° |
| 2026-05-07 13:53 | 31.00815 | 121.74296 | 5024 ft | 253 kts | 161° |
| 2026-05-07 13:53 | 30.99192 | 121.75006 | 4484 ft | 251 kts | 158° |
| 2026-05-07 13:54 | 30.97732 | 121.76087 | 3938 ft | 252 kts | 131° |
| 2026-05-07 13:54 | 30.96816 | 121.77820 | 3455 ft | 252 kts | 102° |
| 2026-05-07 13:54 | 30.96656 | 121.79768 | 3279 ft | 236 kts | 79° |
| 2026-05-07 13:54 | 30.97120 | 121.81579 | 2871 ft | 232 kts | 57° |
| 2026-05-07 13:55 | 30.98091 | 121.82962 | 2759 ft | 208 kts | 36° |
| 2026-05-07 13:55 | 30.99258 | 121.83777 | 2627 ft | 186 kts | 20° |
| 2026-05-07 13:55 | 31.00471 | 121.84108 | 2480 ft | 174 kts | 5° |
| 2026-05-07 13:55 | 31.01619 | 121.84030 | 2294 ft | 158 kts | 351° |
| 2026-05-07 13:56 | 31.02631 | 121.83679 | 2094 ft | 145 kts | 346° |
| 2026-05-07 13:56 | 31.03537 | 121.83337 | 1938 ft | 129 kts | 349° |
| 2026-05-07 13:56 | 31.04361 | 121.83028 | 1755 ft | 121 kts | 349° |
| 2026-05-07 13:56 | 31.05154 | 121.82731 | 1596 ft | 119 kts | 349° |
| 2026-05-07 13:57 | 31.05944 | 121.82435 | 1432 ft | 119 kts | 348° |
| 2026-05-07 13:57 | 31.06736 | 121.82138 | 1275 ft | 120 kts | 348° |
| 2026-05-07 13:57 | 31.07527 | 121.81840 | 1108 ft | 120 kts | 348° |
| 2026-05-07 13:57 | 31.08317 | 121.81543 | 952 ft | 119 kts | 348° |
| 2026-05-07 13:58 | 31.09118 | 121.81242 | 777 ft | 122 kts | 346° |
| 2026-05-07 13:58 | 31.09931 | 121.80940 | 625 ft | 124 kts | 344° |
| 2026-05-07 13:58 | 31.10756 | 121.80623 | 421 ft | 125 kts | 345° |
| 2026-05-07 13:58 | 31.11587 | 121.80314 | 248 ft | 130 kts | 343° |
| 2026-05-07 13:59 | 31.12434 | 121.79986 | 113 ft | 127 kts | 346° |
| 2026-05-07 13:59 | 31.13252 | 121.79677 | 34 ft | 115 kts | 345° |
| 2026-05-07 13:59 | 31.13886 | 121.79445 | 22 ft | 61 kts | 342° |
| 2026-05-07 13:59 | 31.14094 | 121.79367 | 20 ft | 23 kts | 342° |
| 2026-05-07 14:00 | 31.14246 | 121.79317 | 21 ft | 23 kts | 351° |
| 2026-05-07 14:00 | 31.14399 | 121.79325 | 25 ft | 22 kts | 12° |
| 2026-05-07 14:00 | 31.14515 | 121.79405 | 23 ft | 20 kts | 70° |
| 2026-05-07 14:00 | 31.14561 | 121.79569 | 25 ft | 22 kts | 72° |
| 2026-05-07 14:01 | 31.14573 | 121.79732 | 23 ft | 21 kts | 140° |
| 2026-05-07 14:01 | 31.14440 | 121.79790 | 23 ft | 20 kts | 162° |
| 2026-05-07 14:01 | 31.14314 | 121.79838 | 24 ft | 19 kts | 162° |
| 2026-05-07 14:01 | 31.14186 | 121.79884 | 23 ft | 20 kts | 161° |
| 2026-05-07 14:02 | 31.14039 | 121.79941 | 24 ft | 24 kts | 162° |
| 2026-05-07 14:02 | 31.13868 | 121.80006 | 24 ft | 28 kts | 162° |
| 2026-05-07 14:02 | 31.13686 | 121.80071 | 23 ft | 24 kts | 164° |
| 2026-05-07 14:02 | 31.13621 | 121.79999 | 23 ft | 5 kts | 254° |
| 2026-05-07 14:03 | 31.13620 | 121.79998 | 23 ft | 0 kts | 254° |